createdAt,value
2023-02-23T00:01:19.995Z,6.07
2023-02-23T00:03:49.144Z,5.93
2023-02-23T00:06:18.014Z,5.85
2023-02-23T00:08:45.936Z,6.78
2023-02-23T00:11:13.629Z,6.05
2023-02-23T00:13:42.380Z,6.15
2023-02-23T00:16:15.747Z,6.35
2023-02-23T00:18:44.729Z,6.03
2023-02-23T00:21:16.052Z,5.97
2023-02-23T00:23:44.189Z,6.65
2023-02-23T00:26:11.388Z,6.50
2023-02-23T00:28:38.870Z,7.32
2023-02-23T00:31:05.808Z,5.88
2023-02-23T00:33:32.718Z,6.93
2023-02-23T00:36:05.633Z,6.70
2023-02-23T00:38:34.363Z,6.70
2023-02-23T00:41:04.662Z,6.45
2023-02-23T00:43:35.217Z,6.68
2023-02-23T00:46:07.162Z,6.55
2023-02-23T00:48:35.086Z,8.27
2023-02-23T00:51:05.535Z,6.93
2023-02-23T00:53:34.719Z,6.35
2023-02-23T00:56:04.312Z,6.63
2023-02-23T00:58:31.530Z,7.57
2023-02-23T01:00:59.355Z,7.20
2023-02-23T01:03:26.566Z,7.18
2023-02-23T01:05:53.414Z,6.85
2023-02-23T01:08:22.404Z,6.32
2023-02-23T01:10:51.070Z,7.15
2023-02-23T01:13:19.334Z,7.88
2023-02-23T01:15:46.619Z,7.43
2023-02-23T01:18:13.943Z,7.22
2023-02-23T01:20:42.410Z,7.03
2023-02-23T01:23:12.917Z,7.68
2023-02-23T01:25:42.300Z,7.22
2023-02-23T01:28:11.233Z,6.70
2023-02-23T01:30:39.894Z,6.75
2023-02-23T01:33:08.195Z,7.18
2023-02-23T01:35:35.402Z,7.10
2023-02-23T01:38:02.789Z,7.03
2023-02-23T01:40:29.970Z,7.50
2023-02-23T01:42:59.142Z,7.60
2023-02-23T01:45:32.704Z,6.82
2023-02-23T01:48:07.072Z,7.88
2023-02-23T01:50:46.624Z,8.13
2023-02-23T01:53:14.531Z,7.43
2023-02-23T01:55:44.323Z,8.30
2023-02-23T01:58:16.701Z,7.93
2023-02-23T02:04:05.142Z,6.75
2023-02-23T02:08:54.919Z,7.75
2023-02-23T02:12:27.503Z,8.05
2023-02-23T02:16:09.831Z,7.35
2023-02-23T02:27:57.997Z,6.85
2023-02-23T02:31:18.993Z,8.38
2023-02-23T02:34:41.599Z,7.47
2023-02-23T02:41:58.698Z,7.38
2023-02-23T02:44:40.034Z,8.02
2023-02-23T02:48:10.810Z,8.23
2023-02-23T02:51:33.871Z,8.18
2023-02-23T02:59:15.384Z,8.13
2023-02-23T03:03:06.077Z,8.15
2023-02-23T03:07:00.674Z,8.57
2023-02-23T03:10:59.907Z,7.90
2023-02-23T03:18:58.631Z,7.72
2023-02-23T03:25:54.958Z,8.07
2023-02-23T03:30:08.948Z,8.90
2023-02-23T04:07:14.182Z,9.07
2023-02-23T04:11:10.397Z,9.43
2023-02-23T04:18:23.222Z,8.55
2023-02-23T04:26:14.873Z,8.75
2023-02-23T04:30:13.494Z,9.15
2023-02-23T04:40:17.602Z,8.90
2023-02-23T04:43:34.676Z,8.73
2023-02-23T04:47:02.460Z,7.95
2023-02-23T04:50:27.448Z,8.93
2023-02-23T04:54:16.528Z,8.77
2023-02-23T04:57:26.418Z,8.32
2023-02-23T05:00:46.667Z,8.23
2023-02-23T05:04:44.008Z,8.23
2023-02-23T05:07:41.406Z,8.57
2023-02-23T05:12:21.131Z,8.68
2023-02-23T05:15:50.212Z,7.30
2023-02-23T05:46:58.228Z,8.63
2023-02-23T05:49:45.748Z,8.68
2023-02-23T05:52:14.384Z,8.95
2023-02-23T05:54:41.455Z,9.05
2023-02-23T05:57:08.616Z,8.70
2023-02-23T05:59:35.606Z,10.48
2023-02-23T06:02:02.860Z,11.20
2023-02-23T06:04:29.945Z,10.90
2023-02-23T06:06:57.190Z,9.70
2023-02-23T06:09:25.691Z,8.75
2023-02-23T06:11:52.708Z,8.98
2023-02-23T06:14:19.808Z,9.43
2023-02-23T06:16:46.776Z,9.48
2023-02-23T06:19:13.908Z,8.52
2023-02-23T06:21:40.927Z,9.77
2023-02-23T06:24:07.996Z,8.88
2023-02-23T06:26:36.330Z,9.35
2023-02-23T06:29:03.254Z,9.38
2023-02-23T06:31:30.110Z,10.27
2023-02-23T06:33:57.186Z,10.07
2023-02-23T06:36:24.088Z,10.60
2023-02-23T06:38:51.200Z,9.38
2023-02-23T06:41:18.412Z,11.95
2023-02-23T06:43:47.338Z,11.00
2023-02-23T06:46:14.200Z,10.82
2023-02-23T06:48:41.317Z,11.38
2023-02-23T06:51:08.402Z,11.60
2023-02-23T06:53:35.369Z,10.55
2023-02-23T06:56:02.808Z,11.07
2023-02-23T06:58:31.716Z,11.95
2023-02-23T07:00:59.961Z,10.90
2023-02-23T07:03:26.910Z,10.32
2023-02-23T07:05:53.804Z,10.15
2023-02-23T07:08:21.082Z,10.27
2023-02-23T07:10:48.487Z,10.57
2023-02-23T07:13:15.434Z,11.70
2023-02-23T07:15:42.602Z,11.00
2023-02-23T07:18:10.774Z,10.80
2023-02-23T07:20:37.770Z,10.82
2023-02-23T07:23:04.983Z,10.30
2023-02-23T07:25:32.163Z,11.45
2023-02-23T07:27:59.101Z,10.30
2023-02-23T07:30:29.425Z,10.35
2023-02-23T07:32:56.506Z,10.50
2023-02-23T07:35:24.918Z,11.02
2023-02-23T07:37:51.950Z,10.60
2023-02-23T07:40:19.547Z,10.70
2023-02-23T07:42:46.680Z,10.57
2023-02-23T07:45:14.731Z,10.82
2023-02-23T07:47:41.631Z,10.20
2023-02-23T07:50:09.946Z,10.23
2023-02-23T07:52:41.592Z,10.57
2023-02-23T07:55:10.961Z,11.27
2023-02-23T07:57:38.166Z,11.35
2023-02-23T08:00:07.320Z,10.52
2023-02-23T08:02:40.690Z,9.88
2023-02-23T08:05:08.440Z,9.70
2023-02-23T08:07:35.973Z,10.25
2023-02-23T08:10:05.057Z,11.98
2023-02-23T08:12:32.468Z,11.65
2023-02-23T08:14:59.476Z,10.52
2023-02-23T08:17:26.260Z,12.07
2023-02-23T08:19:53.111Z,11.07
2023-02-23T08:25:12.493Z,11.95
2023-02-23T08:27:39.386Z,11.88
2023-02-23T08:30:07.454Z,11.80
2023-02-23T08:32:35.839Z,10.77
2023-02-23T08:35:02.677Z,11.00
2023-02-23T08:37:29.896Z,11.65
2023-02-23T08:39:56.883Z,10.52
2023-02-23T08:42:25.336Z,10.02
2023-02-23T08:44:52.424Z,10.35
2023-02-23T08:47:19.770Z,10.15
2023-02-23T08:49:46.729Z,9.90
2023-02-23T08:52:13.596Z,9.43
2023-02-23T08:54:40.451Z,10.02
2023-02-23T08:57:07.467Z,9.55
2023-02-23T08:59:35.742Z,8.52
2023-02-23T09:02:02.682Z,9.15
2023-02-23T09:04:31.528Z,8.23
2023-02-23T09:06:58.709Z,8.10
2023-02-23T09:09:25.488Z,7.63
2023-02-23T09:11:52.355Z,8.43
2023-02-23T09:14:19.468Z,7.00
2023-02-23T09:16:47.895Z,8.02
2023-02-23T09:19:15.183Z,7.68
2023-02-23T09:21:44.111Z,8.07
2023-02-23T09:24:11.260Z,6.93
2023-02-23T09:26:38.624Z,8.35
2023-02-23T09:29:07.118Z,8.45
2023-02-23T09:31:34.652Z,7.60
2023-02-23T09:34:02.934Z,7.53
2023-02-23T09:36:30.677Z,9.75
2023-02-23T09:38:58.705Z,9.85
2023-02-23T09:41:58.753Z,14.77
2023-02-23T09:44:49.878Z,14.23
2023-02-23T09:47:33.508Z,12.98
2023-02-23T09:50:18.669Z,15.45
2023-02-23T09:52:51.068Z,15.82
2023-02-23T09:57:48.685Z,17.05
2023-02-23T10:00:21.243Z,16.55
2023-02-23T10:03:08.870Z,15.45
2023-02-23T10:05:45.060Z,16.20
2023-02-23T10:08:29.608Z,17.50
2023-02-23T10:11:09.210Z,17.75
2023-02-23T10:13:51.515Z,16.88
2023-02-23T10:19:01.692Z,16.15
2023-02-23T10:21:37.956Z,15.70
2023-02-23T10:24:12.984Z,15.25
2023-02-23T10:26:45.529Z,15.75
2023-02-23T10:29:25.822Z,16.92
2023-02-23T10:31:58.014Z,16.58
2023-02-23T10:34:27.912Z,16.83
2023-02-23T10:37:01.192Z,16.90
2023-02-23T10:39:30.687Z,16.10
2023-02-23T10:42:02.589Z,17.88
2023-02-23T10:44:30.500Z,16.70
2023-02-23T10:47:02.517Z,16.35
2023-02-23T10:49:45.205Z,16.08
2023-02-23T10:52:19.906Z,16.63
2023-02-23T10:54:49.981Z,19.40
2023-02-23T10:57:24.627Z,15.18
2023-02-23T11:00:27.934Z,16.98
2023-02-23T11:02:56.599Z,16.48
2023-02-23T11:05:34.334Z,16.35
2023-02-23T11:08:26.482Z,16.45
2023-02-23T11:11:17.245Z,15.57
2023-02-23T11:13:47.204Z,14.90
2023-02-23T11:16:16.234Z,16.65
2023-02-23T11:18:52.733Z,15.10
2023-02-23T11:21:26.293Z,15.82
2023-02-23T11:23:59.516Z,15.88
2023-02-23T11:26:37.571Z,15.20
2023-02-23T11:29:16.216Z,15.15
2023-02-23T11:31:49.755Z,14.88
2023-02-23T11:34:29.382Z,14.30
2023-02-23T11:37:05.384Z,14.65
2023-02-23T11:39:34.696Z,13.88
2023-02-23T11:42:14.086Z,13.73
2023-02-23T11:44:41.660Z,15.32
2023-02-23T11:47:17.235Z,14.82
2023-02-23T11:49:46.882Z,14.30
2023-02-23T11:52:19.100Z,14.18
2023-02-23T11:54:54.699Z,14.45
2023-02-23T11:57:23.810Z,15.70
2023-02-23T11:59:52.065Z,14.90
2023-02-23T12:02:23.514Z,14.60
2023-02-23T12:04:52.978Z,15.77
2023-02-23T12:07:35.105Z,14.75
2023-02-23T12:10:14.562Z,15.60
2023-02-23T12:12:52.631Z,15.15
2023-02-23T12:15:35.883Z,13.88
2023-02-23T12:18:14.141Z,12.60
2023-02-23T12:24:40.686Z,14.75
2023-02-23T12:27:15.974Z,13.95
2023-02-23T12:30:00.179Z,11.25
2023-02-23T12:32:39.745Z,13.68
2023-02-23T12:35:18.556Z,14.25
2023-02-23T12:37:53.051Z,14.57
2023-02-23T12:40:27.386Z,12.98
2023-02-23T12:43:02.643Z,13.30
2023-02-23T12:45:42.991Z,12.10
2023-02-23T12:48:35.605Z,12.55
2023-02-23T12:51:14.146Z,14.55
2023-02-23T12:53:44.413Z,14.93
2023-02-23T12:56:29.499Z,14.77
2023-02-23T12:59:18.949Z,13.93
2023-02-23T13:01:54.565Z,14.98
2023-02-23T13:04:50.760Z,14.15
2023-02-23T13:07:24.160Z,13.23
2023-02-23T13:10:05.582Z,14.23
2023-02-23T13:12:52.561Z,14.80
2023-02-23T13:15:34.994Z,12.40
2023-02-23T13:18:11.397Z,13.63
2023-02-23T13:20:44.810Z,13.00
2023-02-23T13:23:25.181Z,15.00
2023-02-23T13:26:01.503Z,13.20
2023-02-23T13:28:44.956Z,11.30
2023-02-23T13:31:24.649Z,12.85
2023-02-23T13:33:54.223Z,13.13
2023-02-23T13:36:22.849Z,12.57
2023-02-23T13:39:31.168Z,11.90
2023-02-23T13:42:15.905Z,11.43
2023-02-23T13:44:52.510Z,12.65
2023-02-23T13:47:39.680Z,12.00
2023-02-23T13:50:19.455Z,11.93
2023-02-23T13:52:47.010Z,11.85
2023-02-23T13:55:48.327Z,12.13
2023-02-23T13:58:22.334Z,10.63
2023-02-23T14:01:05.307Z,10.85
2023-02-23T14:03:43.596Z,10.15
2023-02-23T14:06:15.566Z,10.60
2023-02-23T14:11:34.736Z,9.88
2023-02-23T14:16:31.932Z,9.50
2023-02-23T14:19:31.525Z,10.40
2023-02-23T14:22:05.362Z,10.85
2023-02-23T14:24:32.490Z,9.18
2023-02-23T14:27:38.468Z,10.45
2023-02-23T14:30:24.009Z,9.70
2023-02-23T14:32:52.351Z,9.48
2023-02-23T14:35:44.604Z,9.88
2023-02-23T14:38:45.734Z,8.85
2023-02-23T14:41:14.951Z,10.00
2023-02-23T14:46:37.489Z,8.95
2023-02-23T14:49:09.347Z,8.18
2023-02-23T14:51:45.325Z,8.65
2023-02-23T14:54:24.021Z,7.68
2023-02-23T14:56:54.427Z,7.60
2023-02-23T14:59:24.022Z,7.05
2023-02-23T15:01:52.044Z,7.15
2023-02-23T15:04:23.075Z,7.28
2023-02-23T15:06:55.552Z,6.93
2023-02-23T15:09:32.354Z,7.32
2023-02-23T15:12:16.595Z,6.47
2023-02-23T15:14:45.799Z,6.03
2023-02-23T15:17:18.134Z,6.43
2023-02-23T15:19:50.633Z,7.28
2023-02-23T15:22:27.760Z,7.88
2023-02-23T15:25:00.009Z,6.38
2023-02-23T15:29:58.241Z,7.07
2023-02-23T15:32:26.591Z,7.65
2023-02-23T15:34:55.684Z,7.15
2023-02-23T15:37:34.032Z,6.90
2023-02-23T15:40:04.720Z,5.85
2023-02-23T15:42:38.601Z,8.18
2023-02-23T15:45:25.602Z,6.97
2023-02-23T15:47:55.246Z,8.10
2023-02-23T15:50:36.263Z,7.63
2023-02-23T15:53:13.009Z,6.50
2023-02-23T15:55:43.365Z,7.53
2023-02-23T15:58:26.972Z,7.03
2023-02-23T16:00:58.030Z,7.15
2023-02-23T16:03:31.313Z,7.28
2023-02-23T16:06:04.994Z,5.30
2023-02-23T16:08:36.745Z,5.22
2023-02-23T16:13:44.321Z,4.10
2023-02-23T16:16:15.590Z,3.70
2023-02-23T16:18:43.228Z,3.20
2023-02-23T16:21:18.704Z,2.58
2023-02-23T16:23:51.125Z,2.70
2023-02-23T16:26:27.342Z,2.88
2023-02-23T16:28:59.161Z,3.13
2023-02-23T16:31:43.370Z,2.33
2023-02-23T16:34:25.308Z,2.42
2023-02-23T16:36:57.137Z,2.38
2023-02-23T16:39:28.620Z,1.60
2023-02-23T16:41:56.458Z,1.90
2023-02-23T16:44:28.500Z,1.88
2023-02-23T16:47:32.586Z,1.50
2023-02-23T16:50:07.528Z,1.50
2023-02-23T16:52:40.615Z,1.88
2023-02-23T16:55:14.598Z,1.98
2023-02-23T16:57:41.718Z,4.00
2023-02-23T17:00:13.662Z,3.60
2023-02-23T17:02:40.743Z,1.65
2023-02-23T17:05:12.290Z,1.80
2023-02-23T17:07:39.845Z,2.30
2023-02-23T17:10:15.743Z,2.45
2023-02-23T17:12:43.154Z,1.73
2023-02-23T17:15:19.102Z,1.42
2023-02-23T17:17:46.240Z,1.13
2023-02-23T17:20:13.442Z,1.38
2023-02-23T17:22:40.370Z,1.70
2023-02-23T17:25:10.005Z,1.77
2023-02-23T17:27:36.874Z,1.63
2023-02-23T17:30:05.225Z,1.20
2023-02-23T17:32:32.859Z,1.05
2023-02-23T17:35:00.692Z,1.30
2023-02-23T17:37:27.938Z,1.50
2023-02-23T17:39:54.909Z,1.25
2023-02-23T17:42:30.477Z,1.55
2023-02-23T17:44:57.942Z,1.30
2023-02-23T17:47:24.945Z,1.40
2023-02-23T17:49:52.331Z,1.17
2023-02-23T17:52:19.365Z,1.60
2023-02-23T17:54:46.839Z,1.83
2023-02-23T17:57:14.335Z,1.20
2023-02-23T17:59:42.741Z,1.40
2023-02-23T18:02:14.661Z,1.33
2023-02-23T18:04:42.490Z,1.40
2023-02-23T18:07:10.239Z,1.67
2023-02-23T18:09:38.083Z,1.55
2023-02-23T18:12:06.020Z,1.13
2023-02-23T18:14:33.698Z,1.20
2023-02-23T18:17:02.102Z,1.23
2023-02-23T18:19:29.015Z,1.08
2023-02-23T18:21:56.356Z,1.10
2023-02-23T18:24:23.870Z,1.20
2023-02-23T18:26:51.032Z,1.20
2023-02-23T18:29:18.268Z,1.05
2023-02-23T18:31:46.208Z,1.50
2023-02-23T18:34:14.837Z,1.30
2023-02-23T18:36:42.147Z,1.38
2023-02-23T18:39:12.241Z,1.40
2023-02-23T18:41:39.918Z,1.45
2023-02-23T18:44:12.614Z,0.95
2023-02-23T18:46:40.090Z,1.20
2023-02-23T18:49:07.101Z,1.02
2023-02-23T18:51:35.515Z,1.00
2023-02-23T18:54:02.580Z,1.13
2023-02-23T18:56:29.674Z,1.10
2023-02-23T18:58:59.732Z,1.70
2023-02-23T19:01:29.940Z,1.70
2023-02-23T19:06:52.249Z,1.27
2023-02-23T19:09:19.105Z,1.13
2023-02-23T19:11:46.278Z,1.10
2023-02-23T19:14:17.136Z,1.58
2023-02-23T19:16:45.557Z,1.58
2023-02-23T19:19:14.255Z,1.33
2023-02-23T19:21:41.581Z,1.52
2023-02-23T19:24:10.066Z,1.17
2023-02-23T19:26:37.866Z,1.70
2023-02-23T19:29:05.259Z,1.33
2023-02-23T19:31:32.632Z,1.38
2023-02-23T19:34:00.031Z,2.08
2023-02-23T19:36:28.972Z,3.67
2023-02-23T19:38:58.338Z,4.93
2023-02-23T19:41:26.683Z,5.50
2023-02-23T19:43:53.670Z,3.58
2023-02-23T19:46:20.617Z,2.38
2023-02-23T19:48:48.946Z,1.80
2023-02-23T19:51:34.293Z,1.40
2023-02-23T19:54:02.283Z,1.15
2023-02-23T19:56:38.725Z,1.40
2023-02-23T19:59:24.194Z,1.15
2023-02-23T20:01:53.668Z,1.05
2023-02-23T20:04:21.453Z,1.02
2023-02-23T20:06:48.577Z,0.90
2023-02-23T20:09:15.582Z,1.23
2023-02-23T20:11:43.949Z,0.90
2023-02-23T20:14:11.164Z,0.88
2023-02-23T20:16:38.419Z,1.10
2023-02-23T20:19:05.583Z,1.02
2023-02-23T20:21:32.896Z,1.15
2023-02-23T20:24:00.172Z,0.77
2023-02-23T20:26:31.076Z,1.10
2023-02-23T20:28:59.987Z,1.02
2023-02-23T20:31:31.027Z,0.80
2023-02-23T20:34:02.637Z,1.02
2023-02-23T20:36:30.202Z,1.38
2023-02-23T20:38:57.489Z,0.90
2023-02-23T20:41:24.745Z,0.88
2023-02-23T20:43:52.387Z,0.73
2023-02-23T20:46:21.038Z,0.77
2023-02-23T20:48:48.292Z,1.00
2023-02-23T20:51:18.451Z,1.00
2023-02-23T20:53:47.468Z,0.90
2023-02-23T20:56:17.795Z,0.75
2023-02-23T20:58:45.823Z,0.65
2023-02-23T21:01:15.108Z,1.10
2023-02-23T21:03:43.485Z,0.60
2023-02-23T21:06:11.147Z,0.70
2023-02-23T21:08:38.533Z,0.80
2023-02-23T21:11:06.379Z,0.77
2023-02-23T21:13:33.788Z,0.65
2023-02-23T21:16:01.723Z,0.63
2023-02-23T21:18:29.422Z,1.05
2023-02-23T21:21:00.316Z,0.70
2023-02-23T21:23:27.458Z,0.90
2023-02-23T21:25:54.528Z,0.77
2023-02-23T21:28:22.851Z,0.63
2023-02-23T21:30:50.094Z,0.60
2023-02-23T21:33:17.683Z,0.60
2023-02-23T21:35:50.106Z,1.45
2023-02-23T21:38:18.732Z,0.82
2023-02-23T21:40:45.720Z,0.77
2023-02-23T21:43:12.939Z,0.70
2023-02-23T21:45:40.084Z,0.80
2023-02-23T21:48:07.200Z,0.55
2023-02-23T21:50:34.138Z,0.82
2023-02-23T21:53:01.282Z,1.65
2023-02-23T21:55:30.009Z,1.75
2023-02-23T21:57:57.212Z,1.10
2023-02-23T22:00:49.173Z,1.00
2023-02-23T22:03:16.059Z,0.63
2023-02-23T22:05:43.094Z,1.00
2023-02-23T22:08:10.200Z,0.90
2023-02-23T22:10:38.458Z,2.20
2023-02-23T22:13:05.453Z,1.17
2023-02-23T22:15:32.514Z,1.40
2023-02-23T22:17:59.354Z,1.00
2023-02-23T22:20:26.546Z,1.75
2023-02-23T22:22:53.686Z,0.88
2023-02-23T22:25:20.904Z,0.68
2023-02-23T22:27:49.339Z,0.90
2023-02-23T22:30:16.810Z,1.58
2023-02-23T22:32:43.906Z,1.48
2023-02-23T22:35:12.582Z,1.63
2023-02-23T22:37:39.508Z,0.68
2023-02-23T22:40:08.735Z,1.42
2023-02-23T22:42:35.785Z,0.70
2023-02-23T22:45:04.818Z,0.55
2023-02-23T22:47:34.175Z,0.90
2023-02-23T22:50:01.492Z,0.60
2023-02-23T22:52:28.432Z,0.63
2023-02-23T22:54:55.522Z,0.80
2023-02-23T22:57:22.408Z,0.50
2023-02-23T22:59:49.426Z,0.60
2023-02-23T23:02:18.037Z,0.60
2023-02-23T23:04:44.939Z,0.60
2023-02-23T23:07:12.052Z,0.70
2023-02-23T23:09:39.632Z,0.63
2023-02-23T23:12:06.910Z,0.50
2023-02-23T23:14:34.130Z,0.80
2023-02-23T23:17:01.086Z,0.80
2023-02-23T23:19:29.625Z,0.55
2023-02-23T23:21:56.574Z,0.60
2023-02-23T23:24:25.251Z,0.60
2023-02-23T23:26:53.786Z,0.65
2023-02-23T23:29:22.509Z,0.57
2023-02-23T23:31:49.724Z,0.30
2023-02-23T23:34:16.869Z,0.70
2023-02-23T23:36:46.420Z,0.82
2023-02-23T23:39:14.418Z,0.45
2023-02-23T23:41:42.321Z,0.52
2023-02-23T23:44:10.198Z,0.55
2023-02-23T23:46:40.076Z,0.70
2023-02-23T23:49:12.822Z,0.68
2023-02-23T23:51:42.746Z,0.70
2023-02-23T23:54:14.523Z,0.60
2023-02-23T23:56:42.174Z,0.60
2023-02-23T23:59:12.821Z,0.50
